createdAt,value
2023-05-13T00:00:00.176Z,10.3
2023-05-13T00:05:00.136Z,10.2
2023-05-13T00:10:00.121Z,10.2
2023-05-13T00:15:00.135Z,10.2
2023-05-13T00:20:00.155Z,10.1
2023-05-13T00:25:00.127Z,10
2023-05-13T00:30:00.134Z,9.9
2023-05-13T00:35:00.159Z,10
2023-05-13T00:40:00.172Z,10
2023-05-13T00:45:00.164Z,10
2023-05-13T00:50:00.146Z,10.1
2023-05-13T00:55:00.132Z,10
2023-05-13T01:00:00.130Z,10
2023-05-13T01:05:00.135Z,9.9
2023-05-13T01:10:00.193Z,10
2023-05-13T01:15:00.384Z,10.1
2023-05-13T01:20:00.147Z,10
2023-05-13T01:25:00.132Z,9.9
2023-05-13T01:30:00.085Z,9.8
2023-05-13T01:35:00.155Z,9.8
2023-05-13T01:40:00.162Z,9.9
2023-05-13T01:45:00.137Z,9.9
2023-05-13T01:50:00.238Z,9.9
2023-05-13T01:55:00.168Z,9.9
2023-05-13T02:00:00.124Z,9.8
2023-05-13T02:05:00.160Z,10
2023-05-13T02:10:00.182Z,10
2023-05-13T02:15:00.120Z,10
2023-05-13T02:20:00.118Z,9.9
2023-05-13T02:25:00.101Z,9.9
2023-05-13T02:30:00.160Z,10
2023-05-13T02:35:00.125Z,9.9
2023-05-13T02:40:00.156Z,10
2023-05-13T02:45:00.131Z,10
2023-05-13T02:50:00.175Z,9.9
2023-05-13T02:55:00.198Z,9.8
2023-05-13T03:00:00.126Z,9.8
2023-05-13T03:05:00.144Z,9.7
2023-05-13T03:10:00.125Z,9.7
2023-05-13T03:15:00.142Z,9.6
2023-05-13T03:20:00.190Z,9.7
2023-05-13T03:25:00.151Z,9.8
2023-05-13T03:30:00.145Z,9.7
2023-05-13T03:35:00.145Z,9.8
2023-05-13T03:40:00.133Z,9.7
2023-05-13T03:45:00.101Z,9.7
2023-05-13T03:50:00.183Z,9.6
2023-05-13T03:55:00.136Z,9.6
2023-05-13T04:00:00.127Z,9.6
2023-05-13T04:05:00.202Z,9.5
2023-05-13T04:10:00.118Z,9.5
2023-05-13T04:15:00.108Z,9.5
2023-05-13T04:20:00.180Z,9.5
2023-05-13T04:25:00.141Z,9.6
2023-05-13T04:30:00.146Z,9.8
2023-05-13T04:35:00.141Z,9.7
2023-05-13T04:40:00.099Z,9.7
2023-05-13T04:45:00.148Z,9.7
2023-05-13T04:50:00.118Z,9.9
2023-05-13T04:55:00.170Z,10.3
2023-05-13T05:00:00.111Z,10.3
2023-05-13T05:05:00.172Z,10.3
2023-05-13T05:10:00.123Z,10.6
2023-05-13T05:15:00.158Z,10.9
2023-05-13T05:20:00.154Z,11.1
2023-05-13T05:25:00.131Z,11
2023-05-13T05:30:00.143Z,10.9
2023-05-13T05:35:00.153Z,10.7
2023-05-13T05:40:00.121Z,10.5
2023-05-13T05:45:00.175Z,10.7
2023-05-13T05:50:00.138Z,11.2
2023-05-13T05:55:00.150Z,11.7
2023-05-13T06:00:00.131Z,11.9
2023-05-13T06:05:00.151Z,12.4
2023-05-13T06:10:00.179Z,12.2
2023-05-13T06:15:00.160Z,12.3
2023-05-13T06:20:00.122Z,12.3
2023-05-13T06:25:00.125Z,12.4
2023-05-13T06:30:00.124Z,12.5
2023-05-13T06:35:00.168Z,12.5
2023-05-13T06:40:00.150Z,12.7
2023-05-13T06:45:00.103Z,13
2023-05-13T06:50:00.180Z,13.3
2023-05-13T06:55:00.169Z,13.4
2023-05-13T07:00:00.138Z,13.2
2023-05-13T07:05:00.098Z,13.3
2023-05-13T07:10:00.125Z,13.3
2023-05-13T07:15:00.176Z,13.8
2023-05-13T07:20:00.169Z,14
2023-05-13T07:25:00.123Z,14
2023-05-13T07:30:00.133Z,14
2023-05-13T07:35:00.148Z,14.2
2023-05-13T07:40:00.150Z,14.4
2023-05-13T07:45:00.202Z,14
2023-05-13T07:50:00.145Z,14.3
2023-05-13T07:55:00.121Z,14.5
2023-05-13T08:00:00.124Z,14.3
2023-05-13T08:05:00.195Z,14.1
2023-05-13T08:10:00.131Z,14.2
2023-05-13T08:15:00.125Z,14.7
2023-05-13T08:20:00.289Z,14.6
2023-05-13T08:25:00.137Z,14.9
2023-05-13T08:30:00.118Z,14.6
2023-05-13T08:35:00.143Z,15
2023-05-13T08:40:00.146Z,15.4
2023-05-13T08:45:00.128Z,15.3
2023-05-13T08:50:00.149Z,15.1
2023-05-13T08:55:00.138Z,15.5
2023-05-13T09:00:00.113Z,16
2023-05-13T09:05:00.175Z,15.8
2023-05-13T09:10:00.161Z,16.2
2023-05-13T09:15:00.159Z,16.1
2023-05-13T09:20:00.242Z,15.9
2023-05-13T09:25:00.180Z,16.3
2023-05-13T09:30:00.156Z,16.3
2023-05-13T09:35:00.110Z,16.2
2023-05-13T09:40:00.129Z,16
2023-05-13T09:45:00.151Z,16
2023-05-13T09:50:00.153Z,15.7
2023-05-13T09:55:00.138Z,15.6
2023-05-13T10:00:00.141Z,15.8
2023-05-13T10:05:00.201Z,16.1
2023-05-13T10:10:00.147Z,16.1
2023-05-13T10:15:00.144Z,16.2
2023-05-13T10:20:00.137Z,16.3
2023-05-13T10:25:00.142Z,16.2
2023-05-13T10:30:03.013Z,16.2
2023-05-13T10:35:00.148Z,16.4
2023-05-13T10:40:00.137Z,16.6
2023-05-13T10:45:00.136Z,16.5
2023-05-13T10:50:00.167Z,16.5
2023-05-13T10:55:00.139Z,16.4
2023-05-13T11:00:00.151Z,16.3
2023-05-13T11:05:00.252Z,16.4
2023-05-13T11:10:00.146Z,16.3
2023-05-13T11:15:00.165Z,16.3
2023-05-13T11:20:00.207Z,16.4
2023-05-13T11:25:00.146Z,16.5
2023-05-13T11:30:00.118Z,16.4
2023-05-13T11:35:00.128Z,16.5
2023-05-13T11:40:00.177Z,16.6
2023-05-13T11:45:00.157Z,16.7
2023-05-13T11:50:00.110Z,16.7
2023-05-13T11:55:00.140Z,16.9
2023-05-13T12:00:00.136Z,17.4
2023-05-13T12:05:00.166Z,17.2
2023-05-13T12:10:00.127Z,17.2
2023-05-13T12:15:00.108Z,17.3
2023-05-13T12:20:00.144Z,17.1
2023-05-13T12:25:00.160Z,17.1
2023-05-13T12:30:00.152Z,17
2023-05-13T12:35:00.134Z,17.2
2023-05-13T12:40:00.151Z,17.3
2023-05-13T12:45:00.120Z,17.4
2023-05-13T12:50:00.120Z,17.6
2023-05-13T12:55:00.192Z,17.6
2023-05-13T13:00:00.140Z,17.3
2023-05-13T13:05:00.145Z,17.4
2023-05-13T13:10:00.131Z,16.9
2023-05-13T13:15:00.134Z,16.5
2023-05-13T13:20:00.136Z,15.9
2023-05-13T13:25:00.140Z,16.2
2023-05-13T13:35:00.154Z,15.7
2023-05-13T13:40:00.118Z,16.1
2023-05-13T13:45:00.154Z,16.3
2023-05-13T13:50:00.149Z,16.5
2023-05-13T13:55:00.131Z,16.3
2023-05-13T14:00:00.140Z,15.8
2023-05-13T14:05:00.158Z,15.3
2023-05-13T14:10:01.145Z,15
2023-05-13T14:15:00.239Z,14.6
2023-05-13T14:20:00.205Z,14.6
2023-05-13T14:25:00.178Z,14.6
2023-05-13T14:30:00.193Z,14.3
2023-05-13T14:35:00.116Z,14.2
2023-05-13T14:40:00.118Z,14.2
2023-05-13T14:45:00.141Z,14.2
2023-05-13T14:50:00.191Z,14.1
2023-05-13T14:55:00.164Z,14.2
2023-05-13T15:00:00.293Z,14.2
2023-05-13T15:05:00.156Z,14.2
2023-05-13T15:10:00.163Z,14.4
2023-05-13T15:15:00.136Z,14.6
2023-05-13T15:20:00.154Z,15
2023-05-13T15:25:00.134Z,15.3
2023-05-13T15:30:00.118Z,15.6
2023-05-13T15:35:00.142Z,15.6
2023-05-13T15:40:00.237Z,15.8
2023-05-13T15:45:00.140Z,15.8
2023-05-13T15:50:00.192Z,16
2023-05-13T15:55:00.116Z,16.3
2023-05-13T16:00:00.153Z,16.6
2023-05-13T16:05:00.116Z,16.6
2023-05-13T16:10:00.213Z,16.5
2023-05-13T16:15:00.127Z,16.5
2023-05-13T16:20:00.284Z,16.1
2023-05-13T16:25:00.150Z,15.8
2023-05-13T16:30:00.303Z,15.6
2023-05-13T16:35:00.173Z,15.6
2023-05-13T16:40:00.182Z,15.6
2023-05-13T16:45:00.140Z,15.8
2023-05-13T16:50:00.127Z,15.9
2023-05-13T16:55:00.166Z,16.1
2023-05-13T17:00:00.134Z,16.2
2023-05-13T17:05:00.148Z,16.3
2023-05-13T17:10:00.130Z,16.3
2023-05-13T17:15:00.118Z,16.6
2023-05-13T17:20:00.195Z,16.6
2023-05-13T17:25:00.202Z,16.6
2023-05-13T17:30:00.160Z,16.4
2023-05-13T17:35:00.185Z,16.2
2023-05-13T17:40:00.160Z,16.1
2023-05-13T17:45:00.175Z,16.1
2023-05-13T17:50:00.112Z,16.1
2023-05-13T17:55:00.097Z,16.2
2023-05-13T18:00:00.186Z,16.2
2023-05-13T18:05:00.124Z,16.2
2023-05-13T18:10:00.165Z,16.3
2023-05-13T18:15:00.139Z,16.1
2023-05-13T18:20:00.169Z,15.8
2023-05-13T18:25:00.148Z,15.5
2023-05-13T18:30:00.115Z,15.4
2023-05-13T18:35:00.150Z,15.2
2023-05-13T18:40:00.273Z,15.1
2023-05-13T18:45:00.295Z,15
2023-05-13T18:50:00.147Z,14.8
2023-05-13T18:55:00.136Z,14.6
2023-05-13T19:00:00.136Z,14.5
2023-05-13T19:05:00.172Z,14.4
2023-05-13T19:10:00.163Z,14.1
2023-05-13T19:15:00.129Z,13.7
2023-05-13T19:20:00.134Z,13.5
2023-05-13T19:25:00.182Z,13.4
2023-05-13T19:30:00.128Z,13.4
2023-05-13T19:35:00.148Z,13.6
2023-05-13T19:40:00.134Z,13.8
2023-05-13T19:45:00.185Z,13.9
2023-05-13T19:50:00.244Z,14
2023-05-13T19:55:00.122Z,14
2023-05-13T20:00:00.195Z,14
2023-05-13T20:05:00.163Z,14
2023-05-13T20:10:00.150Z,13.9
2023-05-13T20:15:00.134Z,13.8
2023-05-13T20:20:00.216Z,13.7
2023-05-13T20:25:00.139Z,13.7
2023-05-13T20:30:00.267Z,13.6
2023-05-13T20:35:00.134Z,13.6
2023-05-13T20:40:00.102Z,13.4
2023-05-13T20:45:00.168Z,13.2
2023-05-13T20:50:00.166Z,13.1
2023-05-13T20:55:00.150Z,12.9
2023-05-13T21:00:00.119Z,12.8
2023-05-13T21:05:00.132Z,12.7
2023-05-13T21:10:00.148Z,12.6
2023-05-13T21:15:00.105Z,12.6
2023-05-13T21:20:00.162Z,12.5
2023-05-13T21:25:00.140Z,12.5
2023-05-13T21:30:00.173Z,12.5
2023-05-13T21:35:00.149Z,12.4
2023-05-13T21:40:00.149Z,12.2
2023-05-13T21:45:00.124Z,12.1
2023-05-13T21:50:00.191Z,12
2023-05-13T21:55:00.142Z,11.9
2023-05-13T22:00:00.113Z,11.7
2023-05-13T22:05:00.108Z,11.4
2023-05-13T22:10:00.167Z,11.4
2023-05-13T22:15:00.129Z,11.2
2023-05-13T22:20:00.113Z,11.1
2023-05-13T22:25:00.158Z,11
2023-05-13T22:30:00.106Z,10.9
2023-05-13T22:35:00.132Z,10.8
2023-05-13T22:40:00.178Z,10.7
2023-05-13T22:45:00.135Z,10.6
2023-05-13T22:50:00.282Z,10.5
2023-05-13T22:55:00.141Z,10.5
2023-05-13T23:00:00.142Z,10.5
2023-05-13T23:05:00.116Z,10.4
2023-05-13T23:10:00.161Z,10.4
2023-05-13T23:15:00.125Z,10.4
2023-05-13T23:20:00.156Z,10.4
2023-05-13T23:25:00.170Z,10.5
2023-05-13T23:30:00.126Z,10.6
2023-05-13T23:35:00.127Z,10.7
2023-05-13T23:40:00.105Z,10.5
2023-05-13T23:45:00.121Z,10.4
2023-05-13T23:50:00.194Z,10.4
2023-05-13T23:55:00.104Z,10.3
